sensor_id;sensor_type;location;lat;lon;timestamp;pressure;altitude;pressure_sealevel;temperature;humidity
35758;BME280;21879;50.110;18.900;2023-02-12T00:00:22;99919.77;;;4.81;75.40
35758;BME280;21879;50.110;18.900;2023-02-12T00:11:09;99922.48;;;4.74;75.54
35758;BME280;21879;50.110;18.900;2023-02-12T00:21:33;99933.30;;;4.73;75.61
35758;BME280;21879;50.110;18.900;2023-02-12T00:31:58;99934.98;;;4.82;75.74
35758;BME280;21879;50.110;18.900;2023-02-12T00:42:23;99949.23;;;4.85;75.66
35758;BME280;21879;50.110;18.900;2023-02-12T00:52:48;99945.39;;;4.69;75.65
35758;BME280;21879;50.110;18.900;2023-02-12T01:03:13;99951.31;;;4.61;75.96
35758;BME280;21879;50.110;18.900;2023-02-12T01:13:38;99951.48;;;4.60;76.16
35758;BME280;21879;50.110;18.900;2023-02-12T01:24:02;99955.48;;;4.72;76.24
35758;BME280;21879;50.110;18.900;2023-02-12T01:34:27;99964.65;;;4.78;76.26
35758;BME280;21879;50.110;18.900;2023-02-12T01:45:41;99975.45;;;4.81;76.41
35758;BME280;21879;50.110;18.900;2023-02-12T01:56:04;99983.11;;;4.89;76.49
35758;BME280;21879;50.110;18.900;2023-02-12T02:06:32;99988.23;;;4.92;76.35
35758;BME280;21879;50.110;18.900;2023-02-12T02:17:15;100003.39;;;4.87;76.20
35758;BME280;21879;50.110;18.900;2023-02-12T02:27:46;100014.98;;;4.83;76.38
35758;BME280;21879;50.110;18.900;2023-02-12T02:38:23;100018.36;;;4.97;76.38
35758;BME280;21879;50.110;18.900;2023-02-12T02:48:54;100026.89;;;5.04;76.34
35758;BME280;21879;50.110;18.900;2023-02-12T02:59:22;100045.27;;;5.07;76.01
35758;BME280;21879;50.110;18.900;2023-02-12T03:09:52;100056.23;;;5.05;75.81
35758;BME280;21879;50.110;18.900;2023-02-12T03:20:21;100074.77;;;5.18;75.84
35758;BME280;21879;50.110;18.900;2023-02-12T03:30:50;100089.27;;;5.33;75.91
35758;BME280;21879;50.110;18.900;2023-02-12T03:41:21;100109.81;;;5.49;75.59
35758;BME280;21879;50.110;18.900;2023-02-12T03:51:48;100129.55;;;5.52;74.92
35758;BME280;21879;50.110;18.900;2023-02-12T04:02:13;100146.21;;;5.34;74.71
35758;BME280;21879;50.110;18.900;2023-02-12T04:12:44;100158.92;;;5.28;74.61
35758;BME280;21879;50.110;18.900;2023-02-12T04:23:38;100173.91;;;5.32;74.79
35758;BME280;21879;50.110;18.900;2023-02-12T04:34:10;100183.92;;;5.52;74.57
35758;BME280;21879;50.110;18.900;2023-02-12T04:44:39;100192.09;;;5.69;73.98
35758;BME280;21879;50.110;18.900;2023-02-12T04:55:04;100207.38;;;5.52;73.48
35758;BME280;21879;50.110;18.900;2023-02-12T05:05:29;100217.67;;;5.46;73.59
35758;BME280;21879;50.110;18.900;2023-02-12T05:15:53;100231.54;;;5.42;73.46
35758;BME280;21879;50.110;18.900;2023-02-12T05:26:20;100235.31;;;5.47;73.35
35758;BME280;21879;50.110;18.900;2023-02-12T05:36:45;100253.23;;;5.61;73.15
35758;BME280;21879;50.110;18.900;2023-02-12T05:47:09;100272.42;;;5.67;72.73
35758;BME280;21879;50.110;18.900;2023-02-12T05:57:33;100286.13;;;5.79;72.60
35758;BME280;21879;50.110;18.900;2023-02-12T06:07:58;100307.21;;;5.94;72.25
35758;BME280;21879;50.110;18.900;2023-02-12T06:18:22;100319.11;;;5.98;71.73
35758;BME280;21879;50.110;18.900;2023-02-12T06:28:46;100337.60;;;5.90;71.69
35758;BME280;21879;50.110;18.900;2023-02-12T06:39:11;100351.44;;;5.90;71.48
35758;BME280;21879;50.110;18.900;2023-02-12T06:49:36;100356.56;;;5.84;71.71
35758;BME280;21879;50.110;18.900;2023-02-12T07:00:00;100368.53;;;5.85;71.42
35758;BME280;21879;50.110;18.900;2023-02-12T07:10:24;100379.65;;;5.59;71.14
35758;BME280;21879;50.110;18.900;2023-02-12T07:20:49;100403.62;;;5.50;71.40
35758;BME280;21879;50.110;18.900;2023-02-12T07:31:15;100405.85;;;5.40;71.24
35758;BME280;21879;50.110;18.900;2023-02-12T07:41:40;100421.80;;;5.25;71.28
35758;BME280;21879;50.110;18.900;2023-02-12T07:52:05;100439.89;;;5.33;71.30
35758;BME280;21879;50.110;18.900;2023-02-12T08:02:30;100461.54;;;4.88;70.35
35758;BME280;21879;50.110;18.900;2023-02-12T08:12:55;100473.89;;;4.38;70.59
35758;BME280;21879;50.110;18.900;2023-02-12T08:23:20;100490.55;;;4.14;70.90
35758;BME280;21879;50.110;18.900;2023-02-12T08:33:46;100505.30;;;3.97;70.91
35758;BME280;21879;50.110;18.900;2023-02-12T08:44:11;100504.80;;;3.90;71.22
35758;BME280;21879;50.110;18.900;2023-02-12T08:54:37;100526.36;;;3.99;71.56
35758;BME280;21879;50.110;18.900;2023-02-12T09:05:02;100530.89;;;3.92;70.79
35758;BME280;21879;50.110;18.900;2023-02-12T09:15:26;100539.86;;;3.82;70.13
35758;BME280;21879;50.110;18.900;2023-02-12T09:25:50;100553.06;;;3.95;70.16
35758;BME280;21879;50.110;18.900;2023-02-12T09:36:16;100555.80;;;4.22;70.18
35758;BME280;21879;50.110;18.900;2023-02-12T09:46:46;100567.32;;;4.36;69.70
35758;BME280;21879;50.110;18.900;2023-02-12T09:57:18;100573.77;;;4.34;68.97
35758;BME280;21879;50.110;18.900;2023-02-12T10:07:56;100583.60;;;4.31;68.82
35758;BME280;21879;50.110;18.900;2023-02-12T10:18:49;100594.20;;;4.37;68.94
35758;BME280;21879;50.110;18.900;2023-02-12T10:29:21;100595.65;;;4.42;68.54
35758;BME280;21879;50.110;18.900;2023-02-12T10:39:49;100606.22;;;4.51;68.24
35758;BME280;21879;50.110;18.900;2023-02-12T10:50:24;100610.32;;;4.74;67.99
35758;BME280;21879;50.110;18.900;2023-02-12T11:00:58;100602.10;;;4.86;67.70
35758;BME280;21879;50.110;18.900;2023-02-12T11:11:25;100596.05;;;4.86;67.56
35758;BME280;21879;50.110;18.900;2023-02-12T11:21:52;100594.85;;;4.82;67.45
35758;BME280;21879;50.110;18.900;2023-02-12T11:32:27;100595.96;;;4.80;67.55
35758;BME280;21879;50.110;18.900;2023-02-12T11:42:53;100590.91;;;4.87;67.65
35758;BME280;21879;50.110;18.900;2023-02-12T11:53:23;100596.67;;;4.92;67.41
35758;BME280;21879;50.110;18.900;2023-02-12T12:03:59;100605.23;;;5.03;67.57
35758;BME280;21879;50.110;18.900;2023-02-12T12:14:30;100600.83;;;5.17;67.45
35758;BME280;21879;50.110;18.900;2023-02-12T12:24:59;100598.47;;;5.18;67.07
35758;BME280;21879;50.110;18.900;2023-02-12T12:35:37;100592.90;;;5.21;67.10
35758;BME280;21879;50.110;18.900;2023-02-12T12:46:33;100591.39;;;5.26;67.23
35758;BME280;21879;50.110;18.900;2023-02-12T12:57:11;100600.95;;;5.32;66.97
35758;BME280;21879;50.110;18.900;2023-02-12T13:07:52;100604.99;;;5.38;66.95
35758;BME280;21879;50.110;18.900;2023-02-12T13:18:32;100604.52;;;5.56;66.84
35758;BME280;21879;50.110;18.900;2023-02-12T13:29:03;100604.23;;;5.66;66.85
35758;BME280;21879;50.110;18.900;2023-02-12T13:39:33;100607.70;;;5.61;66.73
35758;BME280;21879;50.110;18.900;2023-02-12T13:50:04;100600.11;;;5.71;66.76
35758;BME280;21879;50.110;18.900;2023-02-12T14:00:58;100601.89;;;5.76;66.38
35758;BME280;21879;50.110;18.900;2023-02-12T14:11:24;100603.38;;;5.87;66.36
35758;BME280;21879;50.110;18.900;2023-02-12T14:21:49;100603.89;;;5.95;66.01
35758;BME280;21879;50.110;18.900;2023-02-12T14:43:27;100605.39;;;5.64;65.92
35758;BME280;21879;50.110;18.900;2023-02-12T14:53:54;100609.85;;;5.68;66.03
35758;BME280;21879;50.110;18.900;2023-02-12T15:04:24;100607.27;;;5.81;65.97
35758;BME280;21879;50.110;18.900;2023-02-12T15:14:58;100614.61;;;5.92;65.62
35758;BME280;21879;50.110;18.900;2023-02-12T15:25:28;100617.98;;;5.93;65.30
35758;BME280;21879;50.110;18.900;2023-02-12T15:35:54;100623.76;;;5.96;65.05
35758;BME280;21879;50.110;18.900;2023-02-12T15:46:19;100618.29;;;6.01;64.86
35758;BME280;21879;50.110;18.900;2023-02-12T15:56:44;100622.20;;;6.08;64.59
35758;BME280;21879;50.110;18.900;2023-02-12T16:07:09;100634.05;;;5.90;63.98
35758;BME280;21879;50.110;18.900;2023-02-12T16:17:35;100639.63;;;5.62;64.19
35758;BME280;21879;50.110;18.900;2023-02-12T16:28:02;100654.30;;;5.58;64.27
35758;BME280;21879;50.110;18.900;2023-02-12T16:38:47;100658.12;;;5.38;64.03
35758;BME280;21879;50.110;18.900;2023-02-12T16:49:15;100656.80;;;5.19;64.14
35758;BME280;21879;50.110;18.900;2023-02-12T16:59:40;100662.87;;;4.89;63.86
35758;BME280;21879;50.110;18.900;2023-02-12T17:10:12;100676.26;;;4.60;64.10
35758;BME280;21879;50.110;18.900;2023-02-12T17:20:36;100682.98;;;4.42;64.11
35758;BME280;21879;50.110;18.900;2023-02-12T17:31:01;100686.89;;;4.19;64.52
35758;BME280;21879;50.110;18.900;2023-02-12T17:41:29;100684.55;;;4.06;64.33
35758;BME280;21879;50.110;18.900;2023-02-12T17:51:54;100680.22;;;3.88;64.27
35758;BME280;21879;50.110;18.900;2023-02-12T18:02:19;100666.19;;;3.76;64.78
35758;BME280;21879;50.110;18.900;2023-02-12T18:12:43;100661.64;;;3.57;64.81
35758;BME280;21879;50.110;18.900;2023-02-12T18:23:08;100665.35;;;3.28;64.61
35758;BME280;21879;50.110;18.900;2023-02-12T18:33:42;100662.83;;;3.12;64.74
35758;BME280;21879;50.110;18.900;2023-02-12T18:44:07;100659.91;;;3.02;64.96
35758;BME280;21879;50.110;18.900;2023-02-12T18:54:32;100658.95;;;3.00;64.96
35758;BME280;21879;50.110;18.900;2023-02-12T19:04:57;100654.88;;;2.85;65.22
35758;BME280;21879;50.110;18.900;2023-02-12T19:15:22;100654.95;;;2.90;65.34
35758;BME280;21879;50.110;18.900;2023-02-12T19:25:47;100656.90;;;2.97;65.23
35758;BME280;21879;50.110;18.900;2023-02-12T19:36:14;100657.35;;;2.96;64.81
35758;BME280;21879;50.110;18.900;2023-02-12T19:46:39;100661.80;;;2.89;65.06
35758;BME280;21879;50.110;18.900;2023-02-12T19:57:04;100671.48;;;2.87;65.10
35758;BME280;21879;50.110;18.900;2023-02-12T20:07:32;100661.88;;;2.84;65.53
35758;BME280;21879;50.110;18.900;2023-02-12T20:17:57;100656.58;;;3.04;65.54
35758;BME280;21879;50.110;18.900;2023-02-12T20:28:22;100661.52;;;3.03;65.37
35758;BME280;21879;50.110;18.900;2023-02-12T20:38:51;100669.76;;;2.90;65.23
35758;BME280;21879;50.110;18.900;2023-02-12T20:49:18;100666.25;;;2.82;65.19
35758;BME280;21879;50.110;18.900;2023-02-12T20:59:43;100670.27;;;2.70;65.48
35758;BME280;21879;50.110;18.900;2023-02-12T21:10:09;100668.92;;;2.87;65.65
35758;BME280;21879;50.110;18.900;2023-02-12T21:20:35;100669.25;;;3.03;65.17
35758;BME280;21879;50.110;18.900;2023-02-12T21:31:07;100674.31;;;3.05;65.32
35758;BME280;21879;50.110;18.900;2023-02-12T21:41:33;100675.26;;;3.10;65.45
35758;BME280;21879;50.110;18.900;2023-02-12T21:52:00;100675.95;;;3.10;65.42
35758;BME280;21879;50.110;18.900;2023-02-12T22:02:25;100687.26;;;3.16;65.41
35758;BME280;21879;50.110;18.900;2023-02-12T22:12:50;100680.98;;;3.14;65.38
35758;BME280;21879;50.110;18.900;2023-02-12T22:23:14;100681.55;;;3.05;65.34
35758;BME280;21879;50.110;18.900;2023-02-12T22:33:39;100680.29;;;2.94;65.66
35758;BME280;21879;50.110;18.900;2023-02-12T22:44:05;100676.64;;;2.90;65.91
35758;BME280;21879;50.110;18.900;2023-02-12T22:54:29;100673.66;;;2.73;65.90
35758;BME280;21879;50.110;18.900;2023-02-12T23:04:54;100672.25;;;2.76;66.68
35758;BME280;21879;50.110;18.900;2023-02-12T23:15:18;100674.23;;;3.03;66.91
35758;BME280;21879;50.110;18.900;2023-02-12T23:25:43;100675.28;;;3.24;66.80
35758;BME280;21879;50.110;18.900;2023-02-12T23:36:09;100664.23;;;3.43;66.85
35758;BME280;21879;50.110;18.900;2023-02-12T23:46:33;100660.19;;;3.51;66.46
35758;BME280;21879;50.110;18.900;2023-02-12T23:56:58;100657.97;;;3.69;66.35
